Latest Weather Observations for Dwellingup

IDW60801

Issued at 11:33 am WST Saturday 1 August 2015 (issued every 30 minutes, with the page automatically refreshed every 10 minutes)

About weather observations | Map of weather stations | Latest weather observations for WA | Other Formats
Station Details ID: 009538 Name: DWELLINGUP Lat: -32.71 Lon: 116.06 Height: 267.0 m
Data from the previous 72 hours. | See also: Recent months at Dwellingup
Date/Time
WST
Temp
°C
App
Temp
°C
Dew
Point
Rel
Hum
%
Delta-T
°C
Wind Press
QNH
hPa
Press
MSL
hPa
Rain
since 9 am
mm
Dir
 
Spd
km/h
Gust
km/h
Spd
kts
Gust
kts
01/11:30am 13.2 6.8 5.1 58 3.8 SE 28 43 15 23 1025.3 1025.5 0.0
01/11:00am 12.8 5.9 4.8 58 3.7 SE 30 52 16 28 1025.3 1025.5 0.0
01/10:53am 12.3 6.0 5.5 63 3.2 SE 28 52 15 28 1025.3 1025.5 0.0
01/10:30am 12.1 6.2 5.9 66 2.9 SE 26 48 14 26 1025.2 1025.4 0.0
01/10:27am 12.0 5.7 5.9 66 2.9 SE 28 48 15 26 1025.2 1025.4 0.0
01/10:00am 11.4 5.9 5.7 68 2.7 SE 24 41 13 22 1024.9 1025.1 0.0
01/09:30am 10.9 6.1 5.7 70 2.4 SE 20 33 11 18 1024.8 1025.0 0.0
01/09:00am 10.3 5.1 5.7 73 2.1 SE 22 37 12 20 1024.2 1024.4 4.6
01/08:30am 9.8 5.0 5.8 76 1.9 SE 20 33 11 18 1023.6 1023.8 4.6
01/08:00am 9.5 4.3 5.5 76 1.8 SE 22 35 12 19 1022.7 1022.9 4.6
01/07:30am 9.3 3.7 5.5 77 1.8 SE 24 44 13 24 1021.9 1022.1 4.6
01/07:00am 9.3 3.4 5.9 79 1.6 SE 26 41 14 22 1021.4 1021.6 4.6
01/06:30am 9.6 3.5 6.5 81 1.5 SE 28 50 15 27 1020.7 1020.9 4.6
01/06:28am 9.7 3.6 6.4 80 1.6 SE 28 50 15 27 1020.7 1020.9 4.6
01/06:00am 9.8 4.1 6.7 81 1.5 SE 26 44 14 24 1020.5 1020.7 4.6
01/05:36am 9.9 3.8 6.6 80 1.6 SE 28 50 15 27 1020.1 1020.3 4.6
01/05:30am 10.0 4.3 6.7 80 1.6 SE 26 43 14 23 1019.9 1020.1 4.6
01/05:24am 10.0 3.9 6.7 80 1.6 SE 28 50 15 27 1019.8 1020.0 4.6
01/05:00am 9.9 4.6 6.6 80 1.6 SE 24 43 13 23 1019.3 1019.6 4.6
01/04:30am 9.5 2.9 6.2 80 1.5 SE 30 48 16 26 1019.0 1019.3 4.6
01/04:00am 9.5 3.3 6.2 80 1.5 SE 28 50 15 27 1018.5 1018.7 4.6
01/03:30am 9.5 2.9 5.9 78 1.7 ESE 30 54 16 29 1018.2 1018.4 4.6
01/03:00am 9.4 3.1 5.8 78 1.7 ESE 28 48 15 26 1018.2 1018.4 4.6
01/02:30am 9.7 2.7 5.9 77 1.8 ESE 32 56 17 30 1018.2 1018.4 4.6
01/02:00am 10.1 3.9 6.3 77 1.8 SE 28 52 15 28 1018.2 1018.4 4.6
01/01:30am 10.0 3.9 6.5 79 1.7 ESE 28 48 15 26 1017.9 1018.1 4.6
01/01:00am 10.1 3.7 7.0 81 1.5 ESE 30 48 16 26 1017.7 1017.9 4.6
01/12:38am 10.2 4.2 7.1 81 1.5 SE 28 50 15 27 1017.5 1017.7 4.6
01/12:30am 10.2 4.6 7.1 81 1.5 SE 26 44 14 24 1017.4 1017.6 4.6
01/12:00am 10.2 3.4 6.9 80 1.6 SE 32 54 17 29 1017.1 1017.3 4.6
 
Date/Time
WST
Temp
°C
App
Temp
°C
Dew
Point
Rel
Hum
%
Delta-T
°C
Wind Press
QNH
hPa
Press
MSL
hPa
Rain
since 9 am
mm
Dir
 
Spd
km/h
Gust
km/h
Spd
kts
Gust
kts
31/11:30pm 10.3 3.4 7.2 81 1.5 SE 33 57 18 31 1017.0 1017.2 4.6
31/11:00pm 10.6 4.4 8.0 84 1.3 SE 30 57 16 31 1016.8 1017.0 4.6
31/10:30pm 10.7 5.1 8.6 87 1.0 SE 28 50 15 27 1016.5 1016.7 4.6
31/10:00pm 10.7 5.2 9.1 90 0.8 SE 28 48 15 26 1016.3 1016.5 4.6
31/09:30pm 10.6 5.1 9.0 90 0.8 SE 28 48 15 26 1016.1 1016.3 4.4
31/09:00pm 10.8 4.6 9.4 91 0.7 SE 32 61 17 33 1015.9 1016.1 4.2
31/08:30pm 11.4 5.8 10.0 91 0.7 SE 30 56 16 30 1015.3 1015.5 3.2
31/08:05pm 11.8 6.6 10.4 91 0.7 SE 28 50 15 27 1015.0 1015.2 3.0
31/08:00pm 11.9 6.8 10.5 91 0.7 SE 28 44 15 24 1014.9 1015.1 2.8
31/07:30pm 12.6 7.6 11.0 90 0.8 SE 28 52 15 28 1014.2 1014.4 1.4
31/07:20pm 12.8 7.9 11.2 90 0.9 SE 28 50 15 27 1014.0 1014.2 0.8
31/07:00pm 12.9 9.4 11.0 88 1.0 SE 20 35 11 19 1013.6 1013.8 0.4
31/06:30pm 13.6 9.5 11.3 86 1.2 SE 24 43 13 23 1013.2 1013.4 0.2
31/06:00pm 14.0 11.2 11.5 85 1.4 SE 17 30 9 16 1012.6 1012.7 0.2
31/05:30pm 15.5 12.4 11.5 77 2.2 SSE 19 37 10 20 1012.2 1012.3 0.2
31/05:00pm 16.6 15.0 12.8 78 2.1 WSW 13 19 7 10 1011.6 1011.8 0.2
31/04:30pm 17.9 16.0 11.9 68 3.3 W 13 20 7 11 1011.1 1011.3 0.2
31/04:00pm 19.3 18.1 12.8 66 3.7 W 11 19 6 10 1011.2 1011.4 0.2
31/03:30pm 19.3 17.7 11.6 61 4.3 W 11 19 6 10 1011.3 1011.5 0.2
31/03:00pm 19.5 18.3 11.5 60 4.5 W 9 15 5 8 1011.0 1011.2 0.2
31/02:30pm 19.4 17.8 12.7 65 3.8 W 13 19 7 10 1010.8 1011.0 0.2
31/02:00pm 19.5 18.0 12.0 62 4.2 W 11 13 6 7 1010.9 1011.1 0.2
31/01:30pm 18.5 17.9 11.8 65 3.7 NNW 6 15 3 8 1011.6 1011.8 0.2
31/01:00pm 19.3 19.0 11.3 60 4.4 N 4 11 2 6 1012.0 1012.1 0.2
31/12:30pm 18.8 17.8 11.1 61 4.2 SE 7 13 4 7 1012.0 1012.1 0.2
31/12:00pm 18.5 18.1 12.9 70 3.2 S 7 15 4 8 1012.1 1012.2 0.0
31/11:30am 17.8 16.5 12.5 71 3.0 SW 11 15 6 8 1012.9 1013.1 0.0
31/11:00am 17.8 18.0 14.3 80 2.0 SSW 6 15 3 8 1013.2 1013.4 0.0
31/10:30am 17.2 16.9 14.3 83 1.7 SW 9 13 5 7 1013.6 1013.8 0.0
31/10:00am 16.8 18.5 15.2 90 0.9 CALM 0 6 0 3 1013.7 1013.9 0.0
31/09:30am 16.2 17.8 14.9 92 0.8 CALM 0 9 0 5 1013.6 1013.8 0.0
31/09:00am 15.8 16.2 14.7 93 0.6 NNW 6 11 3 6 1013.8 1014.0 9.2
31/08:30am 15.5 15.6 14.4 93 0.6 W 7 13 4 7 1013.2 1013.4 9.2
31/08:00am 15.6 15.3 14.3 92 0.7 W 9 19 5 10 1012.8 1013.0 9.0
31/07:30am 15.5 14.4 14.2 92 0.7 WNW 13 26 7 14 1012.8 1013.0 9.0
31/07:00am 15.4 14.2 14.1 92 0.7 NNW 13 20 7 11 1012.4 1012.5 9.0
31/06:30am 15.5 13.5 14.0 91 0.9 NNW 17 30 9 16 1012.4 1012.5 9.0
31/06:00am 15.5 12.7 14.2 92 0.7 NNW 22 39 12 21 1012.6 1012.7 9.0
31/05:30am 15.2 13.5 13.7 91 0.9 NNW 15 30 8 16 1012.7 1012.8 8.6
31/05:00am 15.3 12.9 13.8 91 0.9 N 19 32 10 17 1012.6 1012.7 4.4
31/04:30am 15.2 14.3 13.7 91 0.9 NNE 11 22 6 12 1012.5 1012.6 4.4
31/04:00am 15.0 13.3 13.7 92 0.7 NNE 15 28 8 15 1012.6 1012.7 4.4
31/03:30am 14.6 13.2 13.3 92 0.7 NNE 13 19 7 10 1013.1 1013.3 4.4
31/03:00am 14.7 13.7 13.4 92 0.7 N 11 17 6 9 1013.4 1013.6 4.4
31/02:30am 14.8 14.7 13.3 91 0.8 N 6 11 3 6 1014.4 1014.6 2.6
31/02:00am 14.9 13.5 13.3 90 0.9 NNE 13 26 7 14 1014.0 1014.2 2.4
31/01:30am 15.4 12.9 13.6 89 1.0 N 19 32 10 17 1014.8 1015.0 2.4
31/01:00am 15.7 12.2 13.5 87 1.2 N 24 41 13 22 1015.4 1015.6 2.0
31/12:36am 16.0 11.7 13.3 84 1.5 N 28 48 15 26 1014.7 1014.9 1.0
31/12:30am 16.0 12.4 13.1 83 1.6 N 24 41 13 22 1014.8 1015.0 1.0
31/12:00am 15.5 12.6 12.8 84 1.5 N 20 32 11 17 1014.7 1014.9 1.0
 
Date/Time
WST
Temp
°C
App
Temp
°C
Dew
Point
Rel
Hum
%
Delta-T
°C
Wind Press
QNH
hPa
Press
MSL
hPa
Rain
since 9 am
mm
Dir
 
Spd
km/h
Gust
km/h
Spd
kts
Gust
kts
30/11:30pm 15.1 13.1 12.8 86 1.3 N 15 26 8 14 1015.1 1015.3 1.0
30/11:00pm 14.8 12.8 12.7 87 1.2 NNW 15 26 8 14 1015.1 1015.3 1.0
30/10:30pm 15.0 13.4 12.7 86 1.3 NNW 13 22 7 12 1016.0 1016.2 1.0
30/10:00pm 15.2 12.3 12.9 86 1.3 N 20 37 11 20 1015.8 1015.9 1.0
30/09:30pm 15.8 12.9 12.9 83 1.6 N 20 37 11 20 1017.1 1017.3 0.8
30/09:00pm 16.1 14.6 13.2 83 1.6 NNW 13 22 7 12 1017.5 1017.7 0.8
30/08:30pm 16.4 14.1 13.1 81 1.9 NNW 17 28 9 15 1017.3 1017.5 0.8
30/08:00pm 16.6 14.3 12.9 79 2.1 NNW 17 28 9 15 1016.5 1016.7 0.8
30/07:30pm 16.6 13.9 12.9 79 2.1 N 19 33 10 18 1016.3 1016.5 0.8
30/07:00pm 16.9 11.8 13.0 78 2.2 NNE 32 56 17 30 1015.4 1015.6 0.8
30/06:57pm 16.9 12.5 13.0 78 2.2 NNE 28 48 15 26 1015.5 1015.7 0.8
30/06:30pm 16.8 13.5 12.9 78 2.2 N 22 39 12 21 1017.4 1017.6 0.8
30/06:00pm 16.9 14.1 13.2 79 2.1 N 20 35 11 19 1017.2 1017.4 0.8
30/05:30pm 16.8 14.3 13.5 81 1.9 N 19 32 10 17 1016.9 1017.1 0.8
30/05:00pm 17.1 15.1 13.8 81 1.9 N 17 30 9 16 1017.1 1017.3 0.8
30/04:30pm 17.3 15.2 13.6 79 2.1 N 17 30 9 16 1016.7 1016.9 0.8
30/04:00pm 17.6 15.0 13.9 79 2.1 N 20 35 11 19 1017.1 1017.3 0.8
30/03:30pm 17.8 15.9 14.3 80 2.0 N 17 35 9 19 1017.1 1017.3 0.8
30/03:00pm 17.9 16.2 14.8 82 1.8 N 17 33 9 18 1017.3 1017.5 0.8
30/02:30pm 17.8 15.7 14.7 82 1.8 NNE 19 32 10 17 1017.7 1017.9 0.8
30/02:00pm 17.8 16.6 15.1 84 1.6 NNE 15 24 8 13 1017.8 1018.0 0.8
30/01:30pm 17.6 16.6 15.6 88 1.2 NNE 15 28 8 15 1018.1 1018.3 0.8
30/01:00pm 17.0 16.8 15.7 92 0.8 NE 11 19 6 10 1018.5 1018.7 0.8
30/12:30pm 16.7 16.8 15.4 92 0.8 NNE 9 17 5 9 1019.5 1019.8 0.8
30/12:00pm 16.4 16.4 15.1 92 0.8 NE 9 15 5 8 1020.2 1020.4 0.6
30/11:30am 16.7 16.8 15.6 93 0.7 NE 9 15 5 8 1020.4 1020.6 0.0
30/11:00am 16.3 16.3 15.3 94 0.6 E 9 15 5 8 1020.5 1020.7 0.0
30/10:30am 15.6 15.4 14.8 95 0.5 ESE 9 15 5 8 1020.7 1020.9 0.0
30/10:00am 14.9 14.5 14.1 95 0.5 E 9 13 5 7 1021.0 1021.2 0.0
30/09:30am 14.3 13.7 13.5 95 0.5 E 9 15 5 8 1021.3 1021.5 0.0
30/09:00am 14.0 13.3 13.2 95 0.4 ESE 9 15 5 8 1021.0 1021.2 3.2
30/08:30am 13.5 12.3 12.7 95 0.4 ESE 11 13 6 7 1020.9 1021.1 3.2
30/08:00am 13.1 11.7 12.3 95 0.4 ESE 11 15 6 8 1020.7 1020.9 3.2
30/07:30am 12.6 11.1 11.8 95 0.4 ESE 11 15 6 8 1020.4 1020.6 3.2
30/07:00am 12.5 10.9 11.7 95 0.4 E 11 15 6 8 1020.1 1020.3 3.2
30/06:30am 12.4 11.2 11.6 95 0.4 ESE 9 13 5 7 1019.9 1020.1 3.2
30/06:00am 12.5 10.9 11.7 95 0.4 ENE 11 15 6 8 1020.0 1020.2 3.2
30/05:30am 12.3 11.4 11.5 95 0.4 ENE 7 9 4 5 1020.0 1020.2 3.2
30/05:00am 12.5 11.3 11.7 95 0.4 E 9 11 5 6 1019.7 1019.9 3.2
30/04:30am 12.4 11.2 11.6 95 0.4 ENE 9 17 5 9 1019.7 1019.9 3.2
30/04:00am 12.4 11.2 11.6 95 0.4 ENE 9 11 5 6 1020.0 1020.2 3.2
30/03:30am 12.4 11.6 11.6 95 0.4 ESE 7 9 4 5 1020.2 1020.4 3.2
30/03:00am 12.5 11.7 11.6 94 0.5 SE 7 9 4 5 1020.2 1020.4 3.2
30/02:30am 12.6 11.4 11.7 94 0.5 SE 9 11 5 6 1020.2 1020.4 3.2
30/02:00am 13.0 12.3 12.1 94 0.5 NE 7 9 4 5 1020.1 1020.3 3.2
30/01:30am 13.1 12.5 12.2 94 0.5 ENE 7 9 4 5 1020.3 1020.5 3.0
30/01:00am 13.0 12.5 12.1 94 0.5 ENE 6 9 3 5 1020.5 1020.7 3.0
30/12:30am 13.6 13.1 12.7 94 0.5 SE 7 7 4 4 1020.5 1020.7 3.0
30/12:00am 13.8 13.4 12.9 94 0.5 S 7 7 4 4 1020.5 1020.7 3.0
 
Date/Time
WST
Temp
°C
App
Temp
°C
Dew
Point
Rel
Hum
%
Delta-T
°C
Wind Press
QNH
hPa
Press
MSL
hPa
Rain
since 9 am
mm
Dir
 
Spd
km/h
Gust
km/h
Spd
kts
Gust
kts
29/11:30pm 14.3 14.2 13.2 93 0.6 WSW 6 7 3 4 1020.6 1020.8 3.0
29/11:00pm 14.7 15.1 13.6 93 0.6 S 4 9 2 5 1020.6 1020.8 3.0
29/10:30pm 15.2 14.8 14.1 93 0.6 SSW 9 11 5 6 1020.4 1020.6 3.0
29/10:00pm 15.5 15.2 14.4 93 0.6 WNW 9 11 5 6 1020.3 1020.5 3.0
29/09:30pm 15.7 15.5 14.6 93 0.6 WNW 9 13 5 7 1020.5 1020.7 3.0
29/09:00pm 15.6 14.6 14.5 93 0.6 WNW 13 26 7 14 1020.4 1020.6 2.2
29/08:30pm 15.4 15.1 14.3 93 0.6 N 9 13 5 7 1020.0 1020.2 0.2
29/08:00pm 14.9 14.3 13.6 92 0.7 NNW 9 13 5 7 1019.9 1020.1 0.2
29/07:30pm 14.6 13.9 13.3 92 0.7 N 9 13 5 7 1019.7 1019.9 0.2
29/07:00pm 14.7 13.6 13.2 91 0.8 N 11 13 6 7 1019.4 1019.7 0.2
29/06:30pm 14.9 14.6 13.3 90 0.9 NNW 7 7 4 4 1019.0 1019.3 0.2
29/06:00pm 15.3 15.0 13.3 88 1.1 WNW 7 9 4 5 1018.9 1019.1 0.2
29/05:30pm 16.2 16.1 14.0 87 1.3 NW 7 11 4 6 1018.5 1018.7 0.2
29/05:00pm 16.5 16.1 14.0 85 1.4 NW 9 15 5 8 1018.4 1018.6 0.2
29/04:30pm 16.7 15.5 14.0 84 1.6 NW 13 24 7 13 1018.4 1018.6 0.2
29/04:00pm 16.8 16.0 14.1 84 1.6 NW 11 20 6 11 1018.3 1018.5 0.2
29/03:30pm 16.8 15.9 13.7 82 1.8 NW 11 20 6 11 1018.1 1018.3 0.2
29/03:00pm 16.7 15.8 13.6 82 1.8 NW 11 20 6 11 1018.1 1018.3 0.2
29/02:30pm 16.4 15.9 13.7 84 1.5 NW 9 15 5 8 1017.7 1017.9 0.2
29/02:00pm 15.9 15.0 13.7 87 1.3 NW 11 15 6 8 1017.6 1017.8 0.2
29/01:30pm 16.3 14.6 13.6 84 1.5 NW 15 26 8 14 1017.7 1017.9 0.0
29/01:00pm 16.8 15.4 13.5 81 1.9 NW 13 26 7 14 1018.0 1018.2 0.0
29/12:30pm 16.7 15.8 13.6 82 1.8 NW 11 19 6 10 1018.3 1018.5 0.0
29/12:00pm 16.9 15.6 13.8 82 1.8 NW 13 22 7 12 1018.7 1018.9 0.0

Other Formats:

Comma delimited format used in spreadsheet applications
http://www.bom.gov.au/fwo/IDW60801/IDW60801.94620.axf

JavaScript Object Notation format (JSON) in row-major order
http://www.bom.gov.au/fwo/IDW60801/IDW60801.94620.json